sensor_id;sensor_type;location;lat;lon;timestamp;P1;durP1;ratioP1;P2;durP2;ratioP2
75297;SDS011;63896;45.990;18.688;2024-02-21T00:01:59;7.67;;;3.70;;
75297;SDS011;63896;45.990;18.688;2024-02-21T00:05:02;10.77;;;4.47;;
75297;SDS011;63896;45.990;18.688;2024-02-21T00:08:06;9.13;;;3.90;;
75297;SDS011;63896;45.990;18.688;2024-02-21T00:11:09;9.48;;;4.55;;
75297;SDS011;63896;45.990;18.688;2024-02-21T00:14:12;7.13;;;3.30;;
75297;SDS011;63896;45.990;18.688;2024-02-21T00:17:14;7.20;;;3.03;;
75297;SDS011;63896;45.990;18.688;2024-02-21T00:20:17;4.28;;;2.15;;
75297;SDS011;63896;45.990;18.688;2024-02-21T00:23:20;8.48;;;2.80;;
75297;SDS011;63896;45.990;18.688;2024-02-21T00:26:23;7.25;;;3.03;;
75297;SDS011;63896;45.990;18.688;2024-02-21T00:40:22;5.20;;;2.50;;
75297;SDS011;63896;45.990;18.688;2024-02-21T00:43:25;4.45;;;2.03;;
75297;SDS011;63896;45.990;18.688;2024-02-21T00:46:28;4.85;;;2.10;;
75297;SDS011;63896;45.990;18.688;2024-02-21T00:49:31;8.07;;;3.07;;
75297;SDS011;63896;45.990;18.688;2024-02-21T00:52:34;6.03;;;2.83;;
75297;SDS011;63896;45.990;18.688;2024-02-21T00:55:37;6.80;;;3.20;;
75297;SDS011;63896;45.990;18.688;2024-02-21T00:58:40;5.82;;;2.22;;
75297;SDS011;63896;45.990;18.688;2024-02-21T01:01:43;5.32;;;2.05;;
75297;SDS011;63896;45.990;18.688;2024-02-21T01:04:46;7.37;;;2.23;;
75297;SDS011;63896;45.990;18.688;2024-02-21T01:07:49;7.57;;;2.20;;
75297;SDS011;63896;45.990;18.688;2024-02-21T01:10:52;2.83;;;1.80;;
75297;SDS011;63896;45.990;18.688;2024-02-21T01:13:55;3.42;;;1.35;;
75297;SDS011;63896;45.990;18.688;2024-02-21T01:16:58;3.40;;;2.00;;
75297;SDS011;63896;45.990;18.688;2024-02-21T01:20:01;4.33;;;1.60;;
75297;SDS011;63896;45.990;18.688;2024-02-21T01:23:04;2.93;;;1.53;;
75297;SDS011;63896;45.990;18.688;2024-02-21T01:26:07;4.50;;;1.40;;
75297;SDS011;63896;45.990;18.688;2024-02-21T01:29:10;4.30;;;1.20;;
75297;SDS011;63896;45.990;18.688;2024-02-21T01:32:13;3.40;;;1.30;;
75297;SDS011;63896;45.990;18.688;2024-02-21T01:35:16;2.07;;;1.10;;
75297;SDS011;63896;45.990;18.688;2024-02-21T01:38:19;2.60;;;1.30;;
75297;SDS011;63896;45.990;18.688;2024-02-21T01:41:22;3.67;;;1.40;;
75297;SDS011;63896;45.990;18.688;2024-02-21T01:44:25;3.08;;;1.30;;
75297;SDS011;63896;45.990;18.688;2024-02-21T01:47:28;3.83;;;1.17;;
75297;SDS011;63896;45.990;18.688;2024-02-21T01:50:31;3.60;;;1.10;;
75297;SDS011;63896;45.990;18.688;2024-02-21T01:53:34;3.50;;;1.27;;
75297;SDS011;63896;45.990;18.688;2024-02-21T01:56:40;3.33;;;1.25;;
75297;SDS011;63896;45.990;18.688;2024-02-21T01:59:43;2.30;;;0.90;;
75297;SDS011;63896;45.990;18.688;2024-02-21T02:02:46;2.58;;;1.00;;
75297;SDS011;63896;45.990;18.688;2024-02-21T02:05:49;3.70;;;1.20;;
75297;SDS011;63896;45.990;18.688;2024-02-21T02:08:53;3.80;;;1.30;;
75297;SDS011;63896;45.990;18.688;2024-02-21T02:11:56;6.07;;;1.40;;
75297;SDS011;63896;45.990;18.688;2024-02-21T02:15:01;5.10;;;1.40;;
75297;SDS011;63896;45.990;18.688;2024-02-21T02:18:08;4.40;;;1.55;;
75297;SDS011;63896;45.990;18.688;2024-02-21T02:21:13;5.93;;;1.10;;
75297;SDS011;63896;45.990;18.688;2024-02-21T02:24:25;3.20;;;1.33;;
75297;SDS011;63896;45.990;18.688;2024-02-21T02:27:28;6.30;;;2.05;;
75297;SDS011;63896;45.990;18.688;2024-02-21T02:30:35;4.65;;;1.70;;
75297;SDS011;63896;45.990;18.688;2024-02-21T02:33:38;4.80;;;1.80;;
75297;SDS011;63896;45.990;18.688;2024-02-21T02:36:41;3.70;;;1.67;;
75297;SDS011;63896;45.990;18.688;2024-02-21T02:39:44;7.53;;;1.70;;
75297;SDS011;63896;45.990;18.688;2024-02-21T02:42:47;4.93;;;2.10;;
75297;SDS011;63896;45.990;18.688;2024-02-21T02:45:51;6.22;;;2.08;;
75297;SDS011;63896;45.990;18.688;2024-02-21T02:48:54;4.32;;;1.75;;
75297;SDS011;63896;45.990;18.688;2024-02-21T02:51:57;4.30;;;1.23;;
75297;SDS011;63896;45.990;18.688;2024-02-21T02:54:59;4.20;;;1.40;;
75297;SDS011;63896;45.990;18.688;2024-02-21T02:58:04;3.45;;;1.60;;
75297;SDS011;63896;45.990;18.688;2024-02-21T03:01:07;4.70;;;1.20;;
75297;SDS011;63896;45.990;18.688;2024-02-21T03:04:09;2.97;;;1.50;;
75297;SDS011;63896;45.990;18.688;2024-02-21T03:07:13;7.17;;;2.10;;
75297;SDS011;63896;45.990;18.688;2024-02-21T03:10:17;3.23;;;1.37;;
75297;SDS011;63896;45.990;18.688;2024-02-21T03:13:21;4.30;;;1.30;;
75297;SDS011;63896;45.990;18.688;2024-02-21T03:16:24;3.67;;;1.45;;
75297;SDS011;63896;45.990;18.688;2024-02-21T03:19:27;2.78;;;1.15;;
75297;SDS011;63896;45.990;18.688;2024-02-21T03:22:31;4.83;;;1.00;;
75297;SDS011;63896;45.990;18.688;2024-02-21T03:25:35;3.93;;;1.10;;
75297;SDS011;63896;45.990;18.688;2024-02-21T03:28:38;3.30;;;1.75;;
75297;SDS011;63896;45.990;18.688;2024-02-21T03:31:42;2.83;;;1.13;;
75297;SDS011;63896;45.990;18.688;2024-02-21T03:34:45;6.13;;;1.30;;
75297;SDS011;63896;45.990;18.688;2024-02-21T03:37:48;4.70;;;1.40;;
75297;SDS011;63896;45.990;18.688;2024-02-21T03:40:52;3.53;;;1.47;;
75297;SDS011;63896;45.990;18.688;2024-02-21T03:43:54;5.15;;;1.60;;
75297;SDS011;63896;45.990;18.688;2024-02-21T03:46:58;2.75;;;1.27;;
75297;SDS011;63896;45.990;18.688;2024-02-21T03:50:02;5.25;;;1.60;;
75297;SDS011;63896;45.990;18.688;2024-02-21T03:53:05;6.57;;;1.90;;
75297;SDS011;63896;45.990;18.688;2024-02-21T03:56:08;4.10;;;1.77;;
75297;SDS011;63896;45.990;18.688;2024-02-21T03:59:11;6.43;;;1.90;;
75297;SDS011;63896;45.990;18.688;2024-02-21T04:02:14;7.40;;;3.53;;
75297;SDS011;63896;45.990;18.688;2024-02-21T04:05:17;9.90;;;3.53;;
75297;SDS011;63896;45.990;18.688;2024-02-21T04:08:20;11.70;;;3.53;;
75297;SDS011;63896;45.990;18.688;2024-02-21T04:11:24;11.67;;;5.13;;
75297;SDS011;63896;45.990;18.688;2024-02-21T04:14:27;16.35;;;5.75;;
75297;SDS011;63896;45.990;18.688;2024-02-21T04:17:32;11.95;;;3.88;;
75297;SDS011;63896;45.990;18.688;2024-02-21T04:20:35;12.63;;;3.20;;
75297;SDS011;63896;45.990;18.688;2024-02-21T04:23:38;9.83;;;3.17;;
75297;SDS011;63896;45.990;18.688;2024-02-21T04:26:40;5.77;;;2.03;;
75297;SDS011;63896;45.990;18.688;2024-02-21T04:29:43;7.38;;;2.20;;
75297;SDS011;63896;45.990;18.688;2024-02-21T04:32:46;6.90;;;2.08;;
75297;SDS011;63896;45.990;18.688;2024-02-21T04:35:50;5.72;;;1.20;;
75297;SDS011;63896;45.990;18.688;2024-02-21T04:38:54;3.97;;;1.17;;
75297;SDS011;63896;45.990;18.688;2024-02-21T04:41:56;6.73;;;1.60;;
75297;SDS011;63896;45.990;18.688;2024-02-21T04:44:59;3.70;;;1.23;;
75297;SDS011;63896;45.990;18.688;2024-02-21T04:48:02;5.10;;;1.20;;
75297;SDS011;63896;45.990;18.688;2024-02-21T04:51:05;1.55;;;0.95;;
75297;SDS011;63896;45.990;18.688;2024-02-21T04:54:08;3.97;;;1.23;;
75297;SDS011;63896;45.990;18.688;2024-02-21T04:57:11;4.00;;;1.20;;
75297;SDS011;63896;45.990;18.688;2024-02-21T05:00:19;3.92;;;1.10;;
75297;SDS011;63896;45.990;18.688;2024-02-21T05:03:22;4.22;;;0.95;;
75297;SDS011;63896;45.990;18.688;2024-02-21T05:06:25;4.45;;;1.42;;
75297;SDS011;63896;45.990;18.688;2024-02-21T05:09:28;3.85;;;1.30;;
75297;SDS011;63896;45.990;18.688;2024-02-21T05:12:31;7.13;;;2.20;;
75297;SDS011;63896;45.990;18.688;2024-02-21T05:15:33;11.88;;;1.90;;
75297;SDS011;63896;45.990;18.688;2024-02-21T05:18:36;5.25;;;1.65;;
75297;SDS011;63896;45.990;18.688;2024-02-21T05:21:39;6.00;;;1.75;;
75297;SDS011;63896;45.990;18.688;2024-02-21T05:24:42;5.80;;;1.52;;
75297;SDS011;63896;45.990;18.688;2024-02-21T05:27:45;6.87;;;1.23;;
75297;SDS011;63896;45.990;18.688;2024-02-21T05:30:48;6.78;;;1.63;;
75297;SDS011;63896;45.990;18.688;2024-02-21T05:33:50;5.00;;;1.83;;
75297;SDS011;63896;45.990;18.688;2024-02-21T05:36:53;19.08;;;3.45;;
75297;SDS011;63896;45.990;18.688;2024-02-21T05:39:57;6.90;;;2.30;;
75297;SDS011;63896;45.990;18.688;2024-02-21T05:42:59;7.33;;;2.30;;
75297;SDS011;63896;45.990;18.688;2024-02-21T05:46:02;9.13;;;2.80;;
75297;SDS011;63896;45.990;18.688;2024-02-21T05:49:05;12.45;;;3.30;;
75297;SDS011;63896;45.990;18.688;2024-02-21T05:52:09;12.27;;;4.57;;
75297;SDS011;63896;45.990;18.688;2024-02-21T05:55:12;11.23;;;3.70;;
75297;SDS011;63896;45.990;18.688;2024-02-21T05:58:15;9.00;;;3.40;;
75297;SDS011;63896;45.990;18.688;2024-02-21T06:01:18;9.98;;;2.75;;
75297;SDS011;63896;45.990;18.688;2024-02-21T06:04:21;9.90;;;3.47;;
75297;SDS011;63896;45.990;18.688;2024-02-21T06:07:24;5.68;;;3.20;;
75297;SDS011;63896;45.990;18.688;2024-02-21T06:10:26;7.10;;;3.25;;
75297;SDS011;63896;45.990;18.688;2024-02-21T06:13:29;26.10;;;6.43;;
75297;SDS011;63896;45.990;18.688;2024-02-21T06:16:32;15.27;;;4.18;;
75297;SDS011;63896;45.990;18.688;2024-02-21T06:19:35;10.15;;;4.20;;
75297;SDS011;63896;45.990;18.688;2024-02-21T06:22:38;14.40;;;4.72;;
75297;SDS011;63896;45.990;18.688;2024-02-21T06:25:41;17.98;;;6.50;;
75297;SDS011;63896;45.990;18.688;2024-02-21T06:28:43;19.53;;;8.33;;
75297;SDS011;63896;45.990;18.688;2024-02-21T06:31:49;19.35;;;7.13;;
75297;SDS011;63896;45.990;18.688;2024-02-21T06:34:51;12.27;;;4.75;;
75297;SDS011;63896;45.990;18.688;2024-02-21T06:37:54;9.95;;;3.03;;
75297;SDS011;63896;45.990;18.688;2024-02-21T06:40:57;10.32;;;2.95;;
75297;SDS011;63896;45.990;18.688;2024-02-21T06:44:02;6.37;;;2.73;;
75297;SDS011;63896;45.990;18.688;2024-02-21T06:47:06;10.45;;;2.97;;
75297;SDS011;63896;45.990;18.688;2024-02-21T06:50:10;11.00;;;2.95;;
75297;SDS011;63896;45.990;18.688;2024-02-21T06:53:13;17.13;;;4.60;;
75297;SDS011;63896;45.990;18.688;2024-02-21T06:56:16;16.52;;;5.63;;
75297;SDS011;63896;45.990;18.688;2024-02-21T06:59:18;16.47;;;5.20;;
75297;SDS011;63896;45.990;18.688;2024-02-21T07:02:21;14.15;;;4.93;;
75297;SDS011;63896;45.990;18.688;2024-02-21T07:05:24;12.77;;;5.22;;
75297;SDS011;63896;45.990;18.688;2024-02-21T07:08:27;15.15;;;5.82;;
75297;SDS011;63896;45.990;18.688;2024-02-21T07:11:34;19.93;;;6.37;;
75297;SDS011;63896;45.990;18.688;2024-02-21T07:14:37;15.03;;;5.47;;
75297;SDS011;63896;45.990;18.688;2024-02-21T07:17:39;12.43;;;5.47;;
75297;SDS011;63896;45.990;18.688;2024-02-21T07:20:42;44.67;;;15.73;;
75297;SDS011;63896;45.990;18.688;2024-02-21T07:23:45;34.90;;;16.85;;
75297;SDS011;63896;45.990;18.688;2024-02-21T07:26:48;19.05;;;9.20;;
75297;SDS011;63896;45.990;18.688;2024-02-21T07:29:51;15.13;;;7.27;;
75297;SDS011;63896;45.990;18.688;2024-02-21T07:32:54;16.02;;;6.38;;
75297;SDS011;63896;45.990;18.688;2024-02-21T07:35:56;19.77;;;6.35;;
75297;SDS011;63896;45.990;18.688;2024-02-21T07:38:59;13.95;;;4.60;;
75297;SDS011;63896;45.990;18.688;2024-02-21T07:42:02;11.82;;;4.07;;
75297;SDS011;63896;45.990;18.688;2024-02-21T07:45:06;12.03;;;3.57;;
75297;SDS011;63896;45.990;18.688;2024-02-21T07:48:13;11.05;;;2.50;;
75297;SDS011;63896;45.990;18.688;2024-02-21T07:51:48;12.98;;;3.88;;
75297;SDS011;63896;45.990;18.688;2024-02-21T07:54:52;6.22;;;1.85;;
75297;SDS011;63896;45.990;18.688;2024-02-21T07:57:54;3.05;;;1.50;;
75297;SDS011;63896;45.990;18.688;2024-02-21T08:00:57;7.47;;;1.87;;
75297;SDS011;63896;45.990;18.688;2024-02-21T08:04:00;6.28;;;1.80;;
75297;SDS011;63896;45.990;18.688;2024-02-21T08:07:05;6.10;;;1.85;;
75297;SDS011;63896;45.990;18.688;2024-02-21T08:10:10;7.13;;;2.28;;
75297;SDS011;63896;45.990;18.688;2024-02-21T08:13:16;4.35;;;1.67;;
75297;SDS011;63896;45.990;18.688;2024-02-21T08:16:19;6.40;;;2.13;;
75297;SDS011;63896;45.990;18.688;2024-02-21T08:19:26;6.15;;;1.67;;
75297;SDS011;63896;45.990;18.688;2024-02-21T08:22:29;7.47;;;2.75;;
75297;SDS011;63896;45.990;18.688;2024-02-21T08:25:32;7.28;;;2.40;;
75297;SDS011;63896;45.990;18.688;2024-02-21T08:28:35;7.40;;;2.10;;
75297;SDS011;63896;45.990;18.688;2024-02-21T08:31:38;11.40;;;2.77;;
75297;SDS011;63896;45.990;18.688;2024-02-21T08:34:41;6.72;;;1.73;;
75297;SDS011;63896;45.990;18.688;2024-02-21T08:37:44;5.70;;;2.13;;
75297;SDS011;63896;45.990;18.688;2024-02-21T08:40:50;8.93;;;2.17;;
75297;SDS011;63896;45.990;18.688;2024-02-21T08:43:53;7.63;;;2.08;;
75297;SDS011;63896;45.990;18.688;2024-02-21T08:46:57;5.47;;;2.00;;
75297;SDS011;63896;45.990;18.688;2024-02-21T08:50:00;5.60;;;1.90;;
75297;SDS011;63896;45.990;18.688;2024-02-21T08:53:16;7.35;;;2.10;;
75297;SDS011;63896;45.990;18.688;2024-02-21T08:56:21;8.48;;;2.20;;
75297;SDS011;63896;45.990;18.688;2024-02-21T08:59:24;7.63;;;2.40;;
75297;SDS011;63896;45.990;18.688;2024-02-21T09:02:31;8.57;;;2.87;;
75297;SDS011;63896;45.990;18.688;2024-02-21T09:05:34;5.32;;;2.13;;
75297;SDS011;63896;45.990;18.688;2024-02-21T09:08:37;3.80;;;2.17;;
75297;SDS011;63896;45.990;18.688;2024-02-21T09:11:40;8.27;;;1.98;;
75297;SDS011;63896;45.990;18.688;2024-02-21T09:14:43;6.53;;;2.40;;
75297;SDS011;63896;45.990;18.688;2024-02-21T09:17:46;12.80;;;1.87;;
75297;SDS011;63896;45.990;18.688;2024-02-21T09:20:49;7.63;;;1.85;;
75297;SDS011;63896;45.990;18.688;2024-02-21T09:23:52;8.23;;;2.10;;
75297;SDS011;63896;45.990;18.688;2024-02-21T09:26:58;6.53;;;2.38;;
75297;SDS011;63896;45.990;18.688;2024-02-21T09:30:02;5.82;;;2.13;;
75297;SDS011;63896;45.990;18.688;2024-02-21T09:33:07;8.93;;;2.60;;
75297;SDS011;63896;45.990;18.688;2024-02-21T09:36:10;17.30;;;3.22;;
75297;SDS011;63896;45.990;18.688;2024-02-21T09:39:16;7.05;;;2.20;;
75297;SDS011;63896;45.990;18.688;2024-02-21T09:42:21;6.38;;;2.53;;
75297;SDS011;63896;45.990;18.688;2024-02-21T09:45:24;5.53;;;1.85;;
75297;SDS011;63896;45.990;18.688;2024-02-21T09:51:51;6.90;;;2.45;;
75297;SDS011;63896;45.990;18.688;2024-02-21T09:54:58;7.28;;;2.15;;
75297;SDS011;63896;45.990;18.688;2024-02-21T09:58:01;5.25;;;1.95;;
75297;SDS011;63896;45.990;18.688;2024-02-21T10:01:05;10.88;;;2.50;;
75297;SDS011;63896;45.990;18.688;2024-02-21T10:04:27;8.47;;;2.60;;
75297;SDS011;63896;45.990;18.688;2024-02-21T10:07:31;7.97;;;3.03;;
75297;SDS011;63896;45.990;18.688;2024-02-21T10:10:44;7.18;;;2.35;;
75297;SDS011;63896;45.990;18.688;2024-02-21T10:13:47;5.82;;;2.33;;
75297;SDS011;63896;45.990;18.688;2024-02-21T10:16:56;6.10;;;2.30;;
75297;SDS011;63896;45.990;18.688;2024-02-21T10:20:09;7.63;;;2.43;;
75297;SDS011;63896;45.990;18.688;2024-02-21T10:23:13;5.05;;;1.90;;
75297;SDS011;63896;45.990;18.688;2024-02-21T10:26:18;8.93;;;2.60;;
75297;SDS011;63896;45.990;18.688;2024-02-21T10:29:21;5.63;;;2.20;;
75297;SDS011;63896;45.990;18.688;2024-02-21T10:32:24;3.75;;;1.75;;
75297;SDS011;63896;45.990;18.688;2024-02-21T10:35:29;7.03;;;2.17;;
75297;SDS011;63896;45.990;18.688;2024-02-21T10:38:33;11.40;;;2.20;;
75297;SDS011;63896;45.990;18.688;2024-02-21T10:41:36;9.88;;;1.70;;
75297;SDS011;63896;45.990;18.688;2024-02-21T10:44:40;8.98;;;2.17;;
75297;SDS011;63896;45.990;18.688;2024-02-21T10:47:44;7.70;;;2.20;;
75297;SDS011;63896;45.990;18.688;2024-02-21T10:57:27;6.57;;;1.92;;
75297;SDS011;63896;45.990;18.688;2024-02-21T11:00:30;6.22;;;2.03;;
75297;SDS011;63896;45.990;18.688;2024-02-21T11:03:33;7.82;;;2.50;;
75297;SDS011;63896;45.990;18.688;2024-02-21T11:06:39;7.97;;;2.10;;
75297;SDS011;63896;45.990;18.688;2024-02-21T11:09:50;8.50;;;2.35;;
75297;SDS011;63896;45.990;18.688;2024-02-21T11:13:10;5.03;;;1.95;;
75297;SDS011;63896;45.990;18.688;2024-02-21T11:16:21;5.43;;;1.95;;
75297;SDS011;63896;45.990;18.688;2024-02-21T11:19:30;5.45;;;2.03;;
75297;SDS011;63896;45.990;18.688;2024-02-21T11:22:40;5.67;;;2.80;;
75297;SDS011;63896;45.990;18.688;2024-02-21T11:25:44;9.88;;;2.40;;
75297;SDS011;63896;45.990;18.688;2024-02-21T11:29:00;6.03;;;2.00;;
75297;SDS011;63896;45.990;18.688;2024-02-21T11:32:05;5.20;;;2.00;;
75297;SDS011;63896;45.990;18.688;2024-02-21T11:35:08;5.30;;;1.65;;
75297;SDS011;63896;45.990;18.688;2024-02-21T11:38:22;4.83;;;1.90;;
75297;SDS011;63896;45.990;18.688;2024-02-21T11:41:27;7.28;;;2.63;;
75297;SDS011;63896;45.990;18.688;2024-02-21T11:44:31;7.15;;;2.60;;
75297;SDS011;63896;45.990;18.688;2024-02-21T11:47:34;7.38;;;2.60;;
75297;SDS011;63896;45.990;18.688;2024-02-21T11:50:41;7.28;;;2.50;;
75297;SDS011;63896;45.990;18.688;2024-02-21T11:53:44;3.93;;;2.23;;
75297;SDS011;63896;45.990;18.688;2024-02-21T11:57:02;8.20;;;2.60;;
75297;SDS011;63896;45.990;18.688;2024-02-21T12:00:16;6.07;;;2.08;;
75297;SDS011;63896;45.990;18.688;2024-02-21T12:03:22;3.67;;;2.05;;
75297;SDS011;63896;45.990;18.688;2024-02-21T12:06:27;4.63;;;2.03;;
75297;SDS011;63896;45.990;18.688;2024-02-21T12:09:30;10.80;;;2.23;;
75297;SDS011;63896;45.990;18.688;2024-02-21T12:12:33;4.53;;;1.92;;
75297;SDS011;63896;45.990;18.688;2024-02-21T12:15:38;12.02;;;2.30;;
75297;SDS011;63896;45.990;18.688;2024-02-21T12:18:42;5.35;;;1.95;;
75297;SDS011;63896;45.990;18.688;2024-02-21T12:21:45;5.07;;;1.90;;
75297;SDS011;63896;45.990;18.688;2024-02-21T12:24:50;5.23;;;2.00;;
75297;SDS011;63896;45.990;18.688;2024-02-21T12:27:53;8.85;;;2.30;;
75297;SDS011;63896;45.990;18.688;2024-02-21T12:30:57;6.35;;;2.10;;
75297;SDS011;63896;45.990;18.688;2024-02-21T12:34:00;8.80;;;1.88;;
75297;SDS011;63896;45.990;18.688;2024-02-21T12:37:06;5.03;;;1.80;;
75297;SDS011;63896;45.990;18.688;2024-02-21T12:40:12;4.03;;;1.60;;
75297;SDS011;63896;45.990;18.688;2024-02-21T12:43:17;5.25;;;1.45;;
75297;SDS011;63896;45.990;18.688;2024-02-21T12:46:21;4.07;;;1.60;;
75297;SDS011;63896;45.990;18.688;2024-02-21T12:49:23;3.92;;;1.67;;
75297;SDS011;63896;45.990;18.688;2024-02-21T12:52:27;4.38;;;2.20;;
75297;SDS011;63896;45.990;18.688;2024-02-21T12:55:30;3.83;;;1.20;;
75297;SDS011;63896;45.990;18.688;2024-02-21T12:58:32;6.57;;;1.50;;
75297;SDS011;63896;45.990;18.688;2024-02-21T13:01:36;4.78;;;1.52;;
75297;SDS011;63896;45.990;18.688;2024-02-21T13:04:40;5.95;;;1.60;;
75297;SDS011;63896;45.990;18.688;2024-02-21T13:07:44;3.75;;;1.45;;
75297;SDS011;63896;45.990;18.688;2024-02-21T13:10:47;3.90;;;1.67;;
75297;SDS011;63896;45.990;18.688;2024-02-21T13:13:53;4.03;;;1.63;;
75297;SDS011;63896;45.990;18.688;2024-02-21T13:16:56;2.58;;;1.25;;
75297;SDS011;63896;45.990;18.688;2024-02-21T13:19:59;5.35;;;1.40;;
75297;SDS011;63896;45.990;18.688;2024-02-21T13:23:03;6.38;;;1.52;;
75297;SDS011;63896;45.990;18.688;2024-02-21T13:26:06;2.87;;;1.20;;
75297;SDS011;63896;45.990;18.688;2024-02-21T13:29:08;3.90;;;1.20;;
75297;SDS011;63896;45.990;18.688;2024-02-21T13:32:11;4.22;;;1.70;;
75297;SDS011;63896;45.990;18.688;2024-02-21T13:35:14;3.70;;;1.45;;
75297;SDS011;63896;45.990;18.688;2024-02-21T13:38:20;3.05;;;1.10;;
75297;SDS011;63896;45.990;18.688;2024-02-21T13:41:23;3.90;;;1.00;;
75297;SDS011;63896;45.990;18.688;2024-02-21T13:44:26;5.18;;;1.27;;
75297;SDS011;63896;45.990;18.688;2024-02-21T13:47:30;4.07;;;1.20;;
75297;SDS011;63896;45.990;18.688;2024-02-21T13:50:33;4.30;;;1.20;;
75297;SDS011;63896;45.990;18.688;2024-02-21T13:53:44;8.57;;;1.83;;
75297;SDS011;63896;45.990;18.688;2024-02-21T13:56:46;6.00;;;1.73;;
75297;SDS011;63896;45.990;18.688;2024-02-21T13:59:52;4.15;;;1.60;;
75297;SDS011;63896;45.990;18.688;2024-02-21T14:03:14;6.55;;;1.60;;
75297;SDS011;63896;45.990;18.688;2024-02-21T14:06:22;5.00;;;0.88;;
75297;SDS011;63896;45.990;18.688;2024-02-21T14:09:25;3.38;;;1.23;;
75297;SDS011;63896;45.990;18.688;2024-02-21T14:12:28;1.93;;;1.20;;
75297;SDS011;63896;45.990;18.688;2024-02-21T14:15:31;3.67;;;1.20;;
75297;SDS011;63896;45.990;18.688;2024-02-21T14:18:34;4.93;;;1.27;;
75297;SDS011;63896;45.990;18.688;2024-02-21T14:21:40;11.93;;;3.58;;
75297;SDS011;63896;45.990;18.688;2024-02-21T14:24:46;18.98;;;4.28;;
75297;SDS011;63896;45.990;18.688;2024-02-21T14:27:48;7.53;;;1.90;;
75297;SDS011;63896;45.990;18.688;2024-02-21T14:30:51;7.90;;;2.00;;
75297;SDS011;63896;45.990;18.688;2024-02-21T14:33:56;4.00;;;1.27;;
75297;SDS011;63896;45.990;18.688;2024-02-21T14:36:58;6.50;;;2.50;;
75297;SDS011;63896;45.990;18.688;2024-02-21T14:40:01;4.18;;;2.10;;
75297;SDS011;63896;45.990;18.688;2024-02-21T14:43:04;6.30;;;2.40;;
75297;SDS011;63896;45.990;18.688;2024-02-21T14:46:07;5.57;;;2.45;;
75297;SDS011;63896;45.990;18.688;2024-02-21T14:49:10;5.63;;;2.08;;
75297;SDS011;63896;45.990;18.688;2024-02-21T14:52:13;2.75;;;1.17;;
75297;SDS011;63896;45.990;18.688;2024-02-21T14:55:19;14.98;;;1.40;;
75297;SDS011;63896;45.990;18.688;2024-02-21T14:58:22;3.23;;;1.00;;
75297;SDS011;63896;45.990;18.688;2024-02-21T15:01:25;3.38;;;1.20;;
75297;SDS011;63896;45.990;18.688;2024-02-21T15:04:28;3.22;;;0.60;;
75297;SDS011;63896;45.990;18.688;2024-02-21T15:07:31;3.65;;;0.95;;
75297;SDS011;63896;45.990;18.688;2024-02-21T15:10:34;4.28;;;1.55;;
75297;SDS011;63896;45.990;18.688;2024-02-21T15:13:37;4.80;;;1.27;;
75297;SDS011;63896;45.990;18.688;2024-02-21T15:16:40;6.57;;;1.33;;
75297;SDS011;63896;45.990;18.688;2024-02-21T15:19:43;3.97;;;1.20;;
75297;SDS011;63896;45.990;18.688;2024-02-21T15:22:47;4.45;;;1.52;;
75297;SDS011;63896;45.990;18.688;2024-02-21T15:25:50;5.78;;;1.27;;
75297;SDS011;63896;45.990;18.688;2024-02-21T15:28:53;5.37;;;1.37;;
75297;SDS011;63896;45.990;18.688;2024-02-21T15:31:56;3.10;;;1.13;;
75297;SDS011;63896;45.990;18.688;2024-02-21T15:34:58;4.25;;;1.05;;
75297;SDS011;63896;45.990;18.688;2024-02-21T15:38:02;5.25;;;1.35;;
75297;SDS011;63896;45.990;18.688;2024-02-21T15:41:05;4.20;;;1.25;;
75297;SDS011;63896;45.990;18.688;2024-02-21T15:44:08;6.37;;;1.60;;
75297;SDS011;63896;45.990;18.688;2024-02-21T15:47:12;5.18;;;1.63;;
75297;SDS011;63896;45.990;18.688;2024-02-21T15:50:21;4.07;;;1.42;;
75297;SDS011;63896;45.990;18.688;2024-02-21T15:53:26;3.75;;;1.60;;
75297;SDS011;63896;45.990;18.688;2024-02-21T15:56:29;4.40;;;1.50;;
75297;SDS011;63896;45.990;18.688;2024-02-21T15:59:32;3.87;;;1.60;;
75297;SDS011;63896;45.990;18.688;2024-02-21T16:02:36;5.03;;;1.35;;
75297;SDS011;63896;45.990;18.688;2024-02-21T16:05:39;6.07;;;1.50;;
75297;SDS011;63896;45.990;18.688;2024-02-21T16:08:44;6.30;;;2.08;;
75297;SDS011;63896;45.990;18.688;2024-02-21T16:11:49;7.50;;;2.08;;
75297;SDS011;63896;45.990;18.688;2024-02-21T16:14:52;5.97;;;2.60;;
75297;SDS011;63896;45.990;18.688;2024-02-21T16:17:55;8.63;;;2.70;;
75297;SDS011;63896;45.990;18.688;2024-02-21T16:20:58;7.15;;;3.20;;
75297;SDS011;63896;45.990;18.688;2024-02-21T16:24:01;4.05;;;1.88;;
75297;SDS011;63896;45.990;18.688;2024-02-21T16:27:04;10.35;;;2.60;;
75297;SDS011;63896;45.990;18.688;2024-02-21T16:30:12;12.27;;;3.47;;
75297;SDS011;63896;45.990;18.688;2024-02-21T16:33:15;10.05;;;4.43;;
75297;SDS011;63896;45.990;18.688;2024-02-21T16:36:22;16.95;;;5.97;;
75297;SDS011;63896;45.990;18.688;2024-02-21T16:39:25;26.80;;;10.32;;
75297;SDS011;63896;45.990;18.688;2024-02-21T16:42:28;34.40;;;15.00;;
75297;SDS011;63896;45.990;18.688;2024-02-21T16:45:31;93.07;;;42.17;;
75297;SDS011;63896;45.990;18.688;2024-02-21T16:48:34;84.72;;;37.72;;
75297;SDS011;63896;45.990;18.688;2024-02-21T16:51:37;94.63;;;42.70;;
75297;SDS011;63896;45.990;18.688;2024-02-21T16:54:40;104.55;;;47.42;;
75297;SDS011;63896;45.990;18.688;2024-02-21T16:57:43;118.30;;;56.42;;
75297;SDS011;63896;45.990;18.688;2024-02-21T17:00:46;160.17;;;65.43;;
75297;SDS011;63896;45.990;18.688;2024-02-21T17:03:50;198.55;;;81.38;;
75297;SDS011;63896;45.990;18.688;2024-02-21T17:06:54;156.10;;;65.60;;
75297;SDS011;63896;45.990;18.688;2024-02-21T17:09:57;96.30;;;44.10;;
75297;SDS011;63896;45.990;18.688;2024-02-21T17:13:01;98.72;;;45.28;;
75297;SDS011;63896;45.990;18.688;2024-02-21T17:16:04;103.10;;;44.27;;
75297;SDS011;63896;45.990;18.688;2024-02-21T17:19:07;74.47;;;35.22;;
75297;SDS011;63896;45.990;18.688;2024-02-21T17:22:12;60.40;;;29.15;;
75297;SDS011;63896;45.990;18.688;2024-02-21T17:25:16;53.22;;;24.77;;
75297;SDS011;63896;45.990;18.688;2024-02-21T17:28:18;54.83;;;25.67;;
75297;SDS011;63896;45.990;18.688;2024-02-21T17:31:21;74.50;;;36.77;;
75297;SDS011;63896;45.990;18.688;2024-02-21T17:34:24;84.75;;;41.72;;
75297;SDS011;63896;45.990;18.688;2024-02-21T17:37:27;112.90;;;55.08;;
75297;SDS011;63896;45.990;18.688;2024-02-21T17:40:30;151.43;;;65.57;;
75297;SDS011;63896;45.990;18.688;2024-02-21T17:43:33;145.18;;;63.25;;
75297;SDS011;63896;45.990;18.688;2024-02-21T17:46:40;106.70;;;48.43;;
75297;SDS011;63896;45.990;18.688;2024-02-21T17:49:44;85.10;;;39.45;;
75297;SDS011;63896;45.990;18.688;2024-02-21T17:52:49;79.07;;;36.70;;
75297;SDS011;63896;45.990;18.688;2024-02-21T17:55:52;113.05;;;50.72;;
75297;SDS011;63896;45.990;18.688;2024-02-21T17:58:55;120.90;;;57.53;;
75297;SDS011;63896;45.990;18.688;2024-02-21T18:01:58;131.93;;;68.83;;
75297;SDS011;63896;45.990;18.688;2024-02-21T18:05:02;134.57;;;67.97;;
75297;SDS011;63896;45.990;18.688;2024-02-21T18:08:07;120.13;;;64.15;;
75297;SDS011;63896;45.990;18.688;2024-02-21T18:11:11;133.68;;;65.78;;
75297;SDS011;63896;45.990;18.688;2024-02-21T18:14:17;125.17;;;63.63;;
75297;SDS011;63896;45.990;18.688;2024-02-21T18:17:20;107.73;;;54.43;;
75297;SDS011;63896;45.990;18.688;2024-02-21T18:20:23;84.18;;;43.55;;
75297;SDS011;63896;45.990;18.688;2024-02-21T18:23:26;137.77;;;57.42;;
75297;SDS011;63896;45.990;18.688;2024-02-21T18:26:32;106.10;;;46.47;;